Saturn, Texas
Current Conditions -  °F | °C
As of 9:15 PM on Monday 20 Oct 2014 (Local Time) from KT20 Reporting Station
Clear Clear  
Wind Chill: 73°   Ceiling: Unl
Heat Index: 73°   Visibility: 10mi
Dew Point: 61°   Wind: 3mph
Humidity: 67%   Direction: 60°ENE
Pressure: 30.01"   Gusts: NA
Location:  29.6608°N, 97.4854°W
Report Text: KT20 210215Z AUTO 06003KT 10SM CLR 23/16 A3001 RMK AO2 T02250160
Loading
Personal Weather Stations






























Interactive Weather Map New forecast layout! Learn more

10-Day Weather Forecast

Advertisements
Track Severe Weather on mobile